sensor_id;sensor_type;location;lat;lon;timestamp;P1;durP1;ratioP1;P2;durP2;ratioP2
20890;SDS011;10605;52.968;8.844;2024-03-02T00:00:44;33.72;;;23.15;;
20890;SDS011;10605;52.968;8.844;2024-03-02T00:03:11;33.67;;;22.88;;
20890;SDS011;10605;52.968;8.844;2024-03-02T00:05:39;34.95;;;23.15;;
20890;SDS011;10605;52.968;8.844;2024-03-02T00:08:05;33.92;;;22.63;;
20890;SDS011;10605;52.968;8.844;2024-03-02T00:13:04;37.30;;;24.55;;
20890;SDS011;10605;52.968;8.844;2024-03-02T00:18:13;42.15;;;29.55;;
20890;SDS011;10605;52.968;8.844;2024-03-02T00:20:46;41.03;;;27.08;;
20890;SDS011;10605;52.968;8.844;2024-03-02T00:23:14;37.30;;;25.58;;
20890;SDS011;10605;52.968;8.844;2024-03-02T00:25:44;36.88;;;24.48;;
20890;SDS011;10605;52.968;8.844;2024-03-02T00:33:40;34.00;;;21.30;;
20890;SDS011;10605;52.968;8.844;2024-03-02T00:36:08;28.70;;;20.17;;
20890;SDS011;10605;52.968;8.844;2024-03-02T00:38:41;29.63;;;19.95;;
20890;SDS011;10605;52.968;8.844;2024-03-02T00:41:15;32.20;;;19.70;;
20890;SDS011;10605;52.968;8.844;2024-03-02T00:43:45;27.77;;;19.95;;
20890;SDS011;10605;52.968;8.844;2024-03-02T00:46:16;25.75;;;18.30;;
20890;SDS011;10605;52.968;8.844;2024-03-02T00:51:22;22.65;;;18.48;;
20890;SDS011;10605;52.968;8.844;2024-03-02T00:53:49;25.90;;;18.65;;
20890;SDS011;10605;52.968;8.844;2024-03-02T00:56:17;27.13;;;19.38;;
20890;SDS011;10605;52.968;8.844;2024-03-02T00:58:43;29.05;;;18.70;;
20890;SDS011;10605;52.968;8.844;2024-03-02T01:01:08;27.05;;;19.02;;
20890;SDS011;10605;52.968;8.844;2024-03-02T01:03:34;25.85;;;19.05;;
20890;SDS011;10605;52.968;8.844;2024-03-02T01:06:02;27.63;;;19.17;;
20890;SDS011;10605;52.968;8.844;2024-03-02T01:08:28;27.80;;;19.52;;
20890;SDS011;10605;52.968;8.844;2024-03-02T01:10:54;29.05;;;19.88;;
20890;SDS011;10605;52.968;8.844;2024-03-02T01:13:20;29.35;;;19.38;;
20890;SDS011;10605;52.968;8.844;2024-03-02T01:15:47;27.45;;;19.98;;
20890;SDS011;10605;52.968;8.844;2024-03-02T01:18:13;26.52;;;19.17;;
20890;SDS011;10605;52.968;8.844;2024-03-02T01:20:38;31.05;;;20.38;;
20890;SDS011;10605;52.968;8.844;2024-03-02T01:23:04;27.30;;;20.17;;
20890;SDS011;10605;52.968;8.844;2024-03-02T01:25:29;30.48;;;19.42;;
20890;SDS011;10605;52.968;8.844;2024-03-02T01:27:55;27.38;;;18.30;;
20890;SDS011;10605;52.968;8.844;2024-03-02T01:30:21;30.20;;;20.40;;
20890;SDS011;10605;52.968;8.844;2024-03-02T01:32:47;28.02;;;19.67;;
20890;SDS011;10605;52.968;8.844;2024-03-02T01:35:15;25.95;;;18.75;;
20890;SDS011;10605;52.968;8.844;2024-03-02T01:37:41;25.92;;;19.38;;
20890;SDS011;10605;52.968;8.844;2024-03-02T01:40:07;23.58;;;18.17;;
20890;SDS011;10605;52.968;8.844;2024-03-02T01:42:36;28.98;;;20.20;;
20890;SDS011;10605;52.968;8.844;2024-03-02T01:45:04;28.02;;;19.33;;
20890;SDS011;10605;52.968;8.844;2024-03-02T01:47:33;29.30;;;20.17;;
20890;SDS011;10605;52.968;8.844;2024-03-02T01:49:59;28.90;;;19.70;;
20890;SDS011;10605;52.968;8.844;2024-03-02T01:52:26;25.88;;;18.60;;
20890;SDS011;10605;52.968;8.844;2024-03-02T01:54:52;26.23;;;19.40;;
20890;SDS011;10605;52.968;8.844;2024-03-02T01:57:18;29.25;;;18.55;;
20890;SDS011;10605;52.968;8.844;2024-03-02T01:59:44;24.60;;;18.90;;
20890;SDS011;10605;52.968;8.844;2024-03-02T02:02:12;24.50;;;18.80;;
20890;SDS011;10605;52.968;8.844;2024-03-02T02:04:39;30.92;;;20.45;;
20890;SDS011;10605;52.968;8.844;2024-03-02T02:07:04;26.95;;;19.52;;
20890;SDS011;10605;52.968;8.844;2024-03-02T02:09:31;26.70;;;19.27;;
20890;SDS011;10605;52.968;8.844;2024-03-02T02:11:57;25.05;;;19.98;;
20890;SDS011;10605;52.968;8.844;2024-03-02T02:14:23;25.48;;;18.55;;
20890;SDS011;10605;52.968;8.844;2024-03-02T02:16:49;28.40;;;20.75;;
20890;SDS011;10605;52.968;8.844;2024-03-02T02:19:14;28.85;;;19.10;;
20890;SDS011;10605;52.968;8.844;2024-03-02T02:21:43;26.25;;;19.00;;
20890;SDS011;10605;52.968;8.844;2024-03-02T02:24:09;26.77;;;19.30;;
20890;SDS011;10605;52.968;8.844;2024-03-02T02:26:35;29.20;;;20.55;;
20890;SDS011;10605;52.968;8.844;2024-03-02T02:29:01;26.42;;;19.15;;
20890;SDS011;10605;52.968;8.844;2024-03-02T02:31:27;30.23;;;20.60;;
20890;SDS011;10605;52.968;8.844;2024-03-02T02:34:01;27.60;;;20.10;;
20890;SDS011;10605;52.968;8.844;2024-03-02T02:36:27;27.83;;;19.10;;
20890;SDS011;10605;52.968;8.844;2024-03-02T02:38:52;27.38;;;19.27;;
20890;SDS011;10605;52.968;8.844;2024-03-02T02:41:18;28.25;;;19.48;;
20890;SDS011;10605;52.968;8.844;2024-03-02T02:43:43;28.65;;;19.05;;
20890;SDS011;10605;52.968;8.844;2024-03-02T02:46:09;26.58;;;19.70;;
20890;SDS011;10605;52.968;8.844;2024-03-02T02:48:35;27.58;;;19.33;;
20890;SDS011;10605;52.968;8.844;2024-03-02T02:51:01;31.40;;;20.13;;
20890;SDS011;10605;52.968;8.844;2024-03-02T02:53:27;25.40;;;19.63;;
20890;SDS011;10605;52.968;8.844;2024-03-02T02:55:52;27.50;;;19.70;;
20890;SDS011;10605;52.968;8.844;2024-03-02T02:58:18;30.10;;;20.95;;
20890;SDS011;10605;52.968;8.844;2024-03-02T03:00:44;28.35;;;20.45;;
20890;SDS011;10605;52.968;8.844;2024-03-02T03:03:09;31.05;;;22.38;;
20890;SDS011;10605;52.968;8.844;2024-03-02T03:05:35;36.55;;;23.30;;
20890;SDS011;10605;52.968;8.844;2024-03-02T03:08:01;32.30;;;22.52;;
20890;SDS011;10605;52.968;8.844;2024-03-02T03:10:26;33.88;;;23.52;;
20890;SDS011;10605;52.968;8.844;2024-03-02T03:12:52;33.42;;;23.00;;
20890;SDS011;10605;52.968;8.844;2024-03-02T03:15:21;37.33;;;24.13;;
20890;SDS011;10605;52.968;8.844;2024-03-02T03:17:46;33.33;;;23.80;;
20890;SDS011;10605;52.968;8.844;2024-03-02T03:20:12;37.95;;;24.50;;
20890;SDS011;10605;52.968;8.844;2024-03-02T03:22:39;38.58;;;25.35;;
20890;SDS011;10605;52.968;8.844;2024-03-02T03:25:04;41.15;;;26.05;;
20890;SDS011;10605;52.968;8.844;2024-03-02T03:27:30;43.80;;;27.95;;
20890;SDS011;10605;52.968;8.844;2024-03-02T03:29:57;42.97;;;26.77;;
20890;SDS011;10605;52.968;8.844;2024-03-02T03:32:22;42.20;;;26.88;;
20890;SDS011;10605;52.968;8.844;2024-03-02T03:34:48;42.67;;;27.05;;
20890;SDS011;10605;52.968;8.844;2024-03-02T03:37:14;39.95;;;25.80;;
20890;SDS011;10605;52.968;8.844;2024-03-02T03:39:40;39.85;;;25.52;;
20890;SDS011;10605;52.968;8.844;2024-03-02T03:42:06;37.05;;;25.65;;
20890;SDS011;10605;52.968;8.844;2024-03-02T03:44:32;36.63;;;25.58;;
20890;SDS011;10605;52.968;8.844;2024-03-02T03:46:58;36.53;;;25.27;;
20890;SDS011;10605;52.968;8.844;2024-03-02T03:49:24;37.55;;;25.40;;
20890;SDS011;10605;52.968;8.844;2024-03-02T03:51:49;36.38;;;25.00;;
20890;SDS011;10605;52.968;8.844;2024-03-02T03:54:15;37.70;;;25.15;;
20890;SDS011;10605;52.968;8.844;2024-03-02T03:56:41;37.42;;;24.67;;
20890;SDS011;10605;52.968;8.844;2024-03-02T03:59:06;34.50;;;23.85;;
20890;SDS011;10605;52.968;8.844;2024-03-02T04:01:32;34.40;;;23.83;;
20890;SDS011;10605;52.968;8.844;2024-03-02T04:03:58;33.78;;;22.83;;
20890;SDS011;10605;52.968;8.844;2024-03-02T04:06:24;32.08;;;22.90;;
20890;SDS011;10605;52.968;8.844;2024-03-02T04:08:50;35.40;;;23.35;;
20890;SDS011;10605;52.968;8.844;2024-03-02T04:11:16;31.17;;;22.20;;
20890;SDS011;10605;52.968;8.844;2024-03-02T04:13:41;30.55;;;21.95;;
20890;SDS011;10605;52.968;8.844;2024-03-02T04:16:07;29.63;;;20.48;;
20890;SDS011;10605;52.968;8.844;2024-03-02T04:18:32;32.30;;;22.27;;
20890;SDS011;10605;52.968;8.844;2024-03-02T04:20:58;29.38;;;21.92;;
20890;SDS011;10605;52.968;8.844;2024-03-02T04:23:24;30.17;;;21.08;;
20890;SDS011;10605;52.968;8.844;2024-03-02T04:25:51;26.58;;;19.25;;
20890;SDS011;10605;52.968;8.844;2024-03-02T04:28:17;29.15;;;21.20;;
20890;SDS011;10605;52.968;8.844;2024-03-02T04:30:42;32.65;;;19.92;;
20890;SDS011;10605;52.968;8.844;2024-03-02T04:33:08;23.88;;;18.77;;
20890;SDS011;10605;52.968;8.844;2024-03-02T04:35:35;26.15;;;20.02;;
20890;SDS011;10605;52.968;8.844;2024-03-02T04:38:01;25.20;;;18.67;;
20890;SDS011;10605;52.968;8.844;2024-03-02T04:40:27;27.30;;;20.20;;
20890;SDS011;10605;52.968;8.844;2024-03-02T04:42:52;26.17;;;19.63;;
20890;SDS011;10605;52.968;8.844;2024-03-02T04:45:19;26.17;;;18.95;;
20890;SDS011;10605;52.968;8.844;2024-03-02T04:47:44;23.85;;;18.83;;
20890;SDS011;10605;52.968;8.844;2024-03-02T04:50:10;24.38;;;18.65;;
20890;SDS011;10605;52.968;8.844;2024-03-02T04:52:36;25.90;;;18.75;;
20890;SDS011;10605;52.968;8.844;2024-03-02T04:55:02;26.00;;;18.45;;
20890;SDS011;10605;52.968;8.844;2024-03-02T04:57:46;23.65;;;18.88;;
20890;SDS011;10605;52.968;8.844;2024-03-02T05:00:12;25.83;;;19.67;;
20890;SDS011;10605;52.968;8.844;2024-03-02T05:02:38;28.83;;;19.88;;
20890;SDS011;10605;52.968;8.844;2024-03-02T05:05:04;23.35;;;17.65;;
20890;SDS011;10605;52.968;8.844;2024-03-02T05:07:30;25.15;;;18.50;;
20890;SDS011;10605;52.968;8.844;2024-03-02T05:09:55;24.00;;;18.92;;
20890;SDS011;10605;52.968;8.844;2024-03-02T05:12:22;27.85;;;18.90;;
20890;SDS011;10605;52.968;8.844;2024-03-02T05:15:19;24.77;;;18.60;;
20890;SDS011;10605;52.968;8.844;2024-03-02T05:17:46;24.00;;;18.60;;
20890;SDS011;10605;52.968;8.844;2024-03-02T05:20:12;22.83;;;18.42;;
20890;SDS011;10605;52.968;8.844;2024-03-02T05:22:38;25.58;;;19.02;;
20890;SDS011;10605;52.968;8.844;2024-03-02T05:25:04;25.42;;;18.33;;
20890;SDS011;10605;52.968;8.844;2024-03-02T05:27:31;24.85;;;18.75;;
20890;SDS011;10605;52.968;8.844;2024-03-02T05:29:57;22.77;;;18.30;;
20890;SDS011;10605;52.968;8.844;2024-03-02T05:32:23;24.05;;;19.27;;
20890;SDS011;10605;52.968;8.844;2024-03-02T05:34:49;29.40;;;20.13;;
20890;SDS011;10605;52.968;8.844;2024-03-02T05:37:16;24.83;;;19.10;;
20890;SDS011;10605;52.968;8.844;2024-03-02T05:39:42;22.38;;;18.08;;
20890;SDS011;10605;52.968;8.844;2024-03-02T05:42:10;25.25;;;18.83;;
20890;SDS011;10605;52.968;8.844;2024-03-02T05:44:36;26.48;;;18.88;;
20890;SDS011;10605;52.968;8.844;2024-03-02T05:47:02;22.30;;;18.08;;
20890;SDS011;10605;52.968;8.844;2024-03-02T05:49:28;24.45;;;18.52;;
20890;SDS011;10605;52.968;8.844;2024-03-02T05:51:54;25.83;;;19.45;;
20890;SDS011;10605;52.968;8.844;2024-03-02T05:54:20;25.73;;;18.70;;
20890;SDS011;10605;52.968;8.844;2024-03-02T05:56:46;26.35;;;19.10;;
20890;SDS011;10605;52.968;8.844;2024-03-02T05:59:11;28.13;;;20.48;;
20890;SDS011;10605;52.968;8.844;2024-03-02T06:01:45;24.92;;;19.98;;
20890;SDS011;10605;52.968;8.844;2024-03-02T06:04:17;26.20;;;19.85;;
20890;SDS011;10605;52.968;8.844;2024-03-02T06:06:43;27.55;;;19.88;;
20890;SDS011;10605;52.968;8.844;2024-03-02T06:09:12;27.08;;;18.98;;
20890;SDS011;10605;52.968;8.844;2024-03-02T06:11:40;30.30;;;19.60;;
20890;SDS011;10605;52.968;8.844;2024-03-02T06:14:07;28.70;;;20.58;;
20890;SDS011;10605;52.968;8.844;2024-03-02T06:16:33;30.95;;;20.85;;
20890;SDS011;10605;52.968;8.844;2024-03-02T06:18:59;28.05;;;19.38;;
20890;SDS011;10605;52.968;8.844;2024-03-02T06:21:26;26.23;;;19.63;;
20890;SDS011;10605;52.968;8.844;2024-03-02T06:23:52;28.15;;;20.73;;
20890;SDS011;10605;52.968;8.844;2024-03-02T06:26:18;25.02;;;19.38;;
20890;SDS011;10605;52.968;8.844;2024-03-02T06:28:44;27.80;;;19.83;;
20890;SDS011;10605;52.968;8.844;2024-03-02T06:31:10;26.92;;;19.92;;
20890;SDS011;10605;52.968;8.844;2024-03-02T06:33:36;26.98;;;20.25;;
20890;SDS011;10605;52.968;8.844;2024-03-02T06:36:02;24.17;;;19.10;;
20890;SDS011;10605;52.968;8.844;2024-03-02T06:38:27;31.42;;;20.92;;
20890;SDS011;10605;52.968;8.844;2024-03-02T06:40:53;25.95;;;20.45;;
20890;SDS011;10605;52.968;8.844;2024-03-02T06:43:20;25.70;;;18.50;;
20890;SDS011;10605;52.968;8.844;2024-03-02T06:45:50;26.00;;;19.52;;
20890;SDS011;10605;52.968;8.844;2024-03-02T06:48:16;26.17;;;19.05;;
20890;SDS011;10605;52.968;8.844;2024-03-02T06:50:48;25.52;;;19.15;;
20890;SDS011;10605;52.968;8.844;2024-03-02T06:53:14;23.00;;;18.17;;
20890;SDS011;10605;52.968;8.844;2024-03-02T06:55:43;25.10;;;18.83;;
20890;SDS011;10605;52.968;8.844;2024-03-02T06:58:09;25.67;;;18.58;;
20890;SDS011;10605;52.968;8.844;2024-03-02T07:00:36;23.15;;;17.48;;
20890;SDS011;10605;52.968;8.844;2024-03-02T07:03:02;21.48;;;16.63;;
20890;SDS011;10605;52.968;8.844;2024-03-02T07:05:27;26.13;;;18.80;;
20890;SDS011;10605;52.968;8.844;2024-03-02T07:07:53;21.02;;;17.63;;
20890;SDS011;10605;52.968;8.844;2024-03-02T07:10:18;27.08;;;17.60;;
20890;SDS011;10605;52.968;8.844;2024-03-02T07:12:44;20.10;;;17.02;;
20890;SDS011;10605;52.968;8.844;2024-03-02T07:15:10;24.08;;;17.48;;
20890;SDS011;10605;52.968;8.844;2024-03-02T07:17:46;18.80;;;16.70;;
20890;SDS011;10605;52.968;8.844;2024-03-02T07:20:12;20.85;;;15.48;;
20890;SDS011;10605;52.968;8.844;2024-03-02T07:22:38;20.20;;;16.15;;
20890;SDS011;10605;52.968;8.844;2024-03-02T07:25:04;18.67;;;15.98;;
20890;SDS011;10605;52.968;8.844;2024-03-02T07:27:32;16.95;;;14.82;;
20890;SDS011;10605;52.968;8.844;2024-03-02T07:29:58;20.30;;;15.13;;
20890;SDS011;10605;52.968;8.844;2024-03-02T07:32:24;21.40;;;15.20;;
20890;SDS011;10605;52.968;8.844;2024-03-02T07:34:50;18.13;;;15.68;;
20890;SDS011;10605;52.968;8.844;2024-03-02T07:37:16;19.73;;;15.45;;
20890;SDS011;10605;52.968;8.844;2024-03-02T07:39:43;18.38;;;15.00;;
20890;SDS011;10605;52.968;8.844;2024-03-02T07:42:10;16.80;;;14.73;;
20890;SDS011;10605;52.968;8.844;2024-03-02T07:44:36;17.23;;;14.75;;
20890;SDS011;10605;52.968;8.844;2024-03-02T07:47:01;21.08;;;15.25;;
20890;SDS011;10605;52.968;8.844;2024-03-02T07:49:27;19.00;;;16.30;;
20890;SDS011;10605;52.968;8.844;2024-03-02T07:51:53;21.83;;;15.73;;
20890;SDS011;10605;52.968;8.844;2024-03-02T07:54:18;23.75;;;15.73;;
20890;SDS011;10605;52.968;8.844;2024-03-02T07:56:44;21.13;;;15.70;;
20890;SDS011;10605;52.968;8.844;2024-03-02T07:59:10;19.67;;;16.20;;
20890;SDS011;10605;52.968;8.844;2024-03-02T08:01:36;18.33;;;15.55;;
20890;SDS011;10605;52.968;8.844;2024-03-02T08:04:01;21.48;;;16.50;;
20890;SDS011;10605;52.968;8.844;2024-03-02T08:06:30;19.13;;;16.25;;
20890;SDS011;10605;52.968;8.844;2024-03-02T08:08:59;17.77;;;15.38;;
20890;SDS011;10605;52.968;8.844;2024-03-02T08:11:26;22.85;;;16.27;;
20890;SDS011;10605;52.968;8.844;2024-03-02T08:13:52;20.38;;;15.48;;
20890;SDS011;10605;52.968;8.844;2024-03-02T08:16:19;19.75;;;16.08;;
20890;SDS011;10605;52.968;8.844;2024-03-02T08:18:49;20.02;;;15.80;;
20890;SDS011;10605;52.968;8.844;2024-03-02T08:21:15;23.45;;;16.52;;
20890;SDS011;10605;52.968;8.844;2024-03-02T08:23:42;21.10;;;16.70;;
20890;SDS011;10605;52.968;8.844;2024-03-02T08:26:08;19.38;;;15.32;;
20890;SDS011;10605;52.968;8.844;2024-03-02T08:28:35;23.58;;;15.95;;
20890;SDS011;10605;52.968;8.844;2024-03-02T08:31:07;24.30;;;17.10;;
20890;SDS011;10605;52.968;8.844;2024-03-02T08:33:35;22.50;;;17.00;;
20890;SDS011;10605;52.968;8.844;2024-03-02T08:36:01;20.40;;;16.20;;
20890;SDS011;10605;52.968;8.844;2024-03-02T08:38:27;27.83;;;16.60;;
20890;SDS011;10605;52.968;8.844;2024-03-02T08:40:53;20.98;;;16.50;;
20890;SDS011;10605;52.968;8.844;2024-03-02T08:43:19;21.10;;;16.08;;
20890;SDS011;10605;52.968;8.844;2024-03-02T08:45:45;17.17;;;15.32;;
20890;SDS011;10605;52.968;8.844;2024-03-02T08:48:12;19.85;;;14.50;;
20890;SDS011;10605;52.968;8.844;2024-03-02T08:50:37;17.58;;;14.93;;
20890;SDS011;10605;52.968;8.844;2024-03-02T08:53:03;15.82;;;14.02;;
20890;SDS011;10605;52.968;8.844;2024-03-02T08:55:29;19.08;;;14.48;;
20890;SDS011;10605;52.968;8.844;2024-03-02T08:57:55;16.08;;;12.98;;
20890;SDS011;10605;52.968;8.844;2024-03-02T09:00:21;14.82;;;13.07;;
20890;SDS011;10605;52.968;8.844;2024-03-02T09:02:47;16.92;;;13.70;;
20890;SDS011;10605;52.968;8.844;2024-03-02T09:05:13;13.60;;;12.20;;
20890;SDS011;10605;52.968;8.844;2024-03-02T09:07:39;17.60;;;13.50;;
20890;SDS011;10605;52.968;8.844;2024-03-02T09:10:08;14.02;;;12.45;;
20890;SDS011;10605;52.968;8.844;2024-03-02T09:12:34;15.32;;;13.30;;
20890;SDS011;10605;52.968;8.844;2024-03-02T09:15:02;13.20;;;11.90;;
20890;SDS011;10605;52.968;8.844;2024-03-02T09:17:29;14.88;;;12.60;;
20890;SDS011;10605;52.968;8.844;2024-03-02T09:19:55;13.20;;;11.80;;
20890;SDS011;10605;52.968;8.844;2024-03-02T09:22:21;16.23;;;12.20;;
20890;SDS011;10605;52.968;8.844;2024-03-02T09:24:49;12.73;;;11.43;;
20890;SDS011;10605;52.968;8.844;2024-03-02T09:27:41;16.25;;;12.23;;
20890;SDS011;10605;52.968;8.844;2024-03-02T09:30:13;16.60;;;11.63;;
20890;SDS011;10605;52.968;8.844;2024-03-02T09:33:26;15.25;;;12.32;;
20890;SDS011;10605;52.968;8.844;2024-03-02T09:35:51;12.75;;;11.45;;
20890;SDS011;10605;52.968;8.844;2024-03-02T09:38:17;16.13;;;11.68;;
20890;SDS011;10605;52.968;8.844;2024-03-02T09:40:43;15.07;;;12.30;;
20890;SDS011;10605;52.968;8.844;2024-03-02T09:43:12;15.05;;;12.40;;
20890;SDS011;10605;52.968;8.844;2024-03-02T09:45:38;13.68;;;11.85;;
20890;SDS011;10605;52.968;8.844;2024-03-02T09:48:05;13.15;;;11.43;;
20890;SDS011;10605;52.968;8.844;2024-03-02T09:50:31;14.02;;;11.65;;
20890;SDS011;10605;52.968;8.844;2024-03-02T09:52:56;13.43;;;11.70;;
20890;SDS011;10605;52.968;8.844;2024-03-02T09:55:22;14.25;;;11.43;;
20890;SDS011;10605;52.968;8.844;2024-03-02T09:57:48;12.15;;;11.05;;
20890;SDS011;10605;52.968;8.844;2024-03-02T10:00:15;14.27;;;11.15;;
20890;SDS011;10605;52.968;8.844;2024-03-02T10:02:41;14.80;;;11.45;;
20890;SDS011;10605;52.968;8.844;2024-03-02T10:05:08;10.98;;;9.90;;
20890;SDS011;10605;52.968;8.844;2024-03-02T10:07:34;11.40;;;10.27;;
20890;SDS011;10605;52.968;8.844;2024-03-02T10:10:11;11.27;;;9.65;;
20890;SDS011;10605;52.968;8.844;2024-03-02T10:12:39;12.15;;;10.27;;
20890;SDS011;10605;52.968;8.844;2024-03-02T10:15:05;10.25;;;9.35;;
20890;SDS011;10605;52.968;8.844;2024-03-02T10:17:31;12.32;;;9.63;;
20890;SDS011;10605;52.968;8.844;2024-03-02T10:19:57;10.65;;;9.52;;
20890;SDS011;10605;52.968;8.844;2024-03-02T10:22:23;10.80;;;9.45;;
20890;SDS011;10605;52.968;8.844;2024-03-02T10:24:49;10.63;;;9.55;;
20890;SDS011;10605;52.968;8.844;2024-03-02T10:27:16;10.88;;;9.60;;
20890;SDS011;10605;52.968;8.844;2024-03-02T10:29:49;9.77;;;8.85;;
20890;SDS011;10605;52.968;8.844;2024-03-02T10:32:16;9.75;;;8.95;;
20890;SDS011;10605;52.968;8.844;2024-03-02T10:34:43;9.93;;;8.40;;
20890;SDS011;10605;52.968;8.844;2024-03-02T10:37:12;9.35;;;8.50;;
20890;SDS011;10605;52.968;8.844;2024-03-02T10:39:50;9.73;;;8.70;;
20890;SDS011;10605;52.968;8.844;2024-03-02T10:42:18;8.85;;;7.95;;
20890;SDS011;10605;52.968;8.844;2024-03-02T10:45:52;8.77;;;7.78;;
20890;SDS011;10605;52.968;8.844;2024-03-02T10:48:20;8.32;;;7.53;;
20890;SDS011;10605;52.968;8.844;2024-03-02T10:50:53;8.77;;;7.93;;
20890;SDS011;10605;52.968;8.844;2024-03-02T10:53:26;9.20;;;6.88;;
20890;SDS011;10605;52.968;8.844;2024-03-02T10:55:55;7.53;;;6.85;;
20890;SDS011;10605;52.968;8.844;2024-03-02T10:58:33;7.43;;;6.88;;
20890;SDS011;10605;52.968;8.844;2024-03-02T11:01:02;8.07;;;7.28;;
20890;SDS011;10605;52.968;8.844;2024-03-02T11:03:33;7.80;;;7.00;;
20890;SDS011;10605;52.968;8.844;2024-03-02T11:06:07;7.47;;;6.88;;
20890;SDS011;10605;52.968;8.844;2024-03-02T11:08:34;8.20;;;7.50;;
20890;SDS011;10605;52.968;8.844;2024-03-02T11:11:06;8.65;;;7.95;;
20890;SDS011;10605;52.968;8.844;2024-03-02T11:13:37;9.02;;;8.20;;
20890;SDS011;10605;52.968;8.844;2024-03-02T11:16:09;7.80;;;7.20;;
20890;SDS011;10605;52.968;8.844;2024-03-02T11:18:42;8.00;;;7.35;;
20890;SDS011;10605;52.968;8.844;2024-03-02T11:21:08;7.57;;;6.95;;
20890;SDS011;10605;52.968;8.844;2024-03-02T11:23:35;7.45;;;6.80;;
20890;SDS011;10605;52.968;8.844;2024-03-02T11:26:19;7.65;;;7.05;;
20890;SDS011;10605;52.968;8.844;2024-03-02T11:28:45;8.38;;;7.57;;
20890;SDS011;10605;52.968;8.844;2024-03-02T11:31:12;8.38;;;7.55;;
20890;SDS011;10605;52.968;8.844;2024-03-02T11:33:37;8.10;;;7.18;;
20890;SDS011;10605;52.968;8.844;2024-03-02T11:36:03;7.30;;;6.72;;
20890;SDS011;10605;52.968;8.844;2024-03-02T11:38:32;10.20;;;7.22;;
20890;SDS011;10605;52.968;8.844;2024-03-02T11:40:59;7.65;;;6.95;;
20890;SDS011;10605;52.968;8.844;2024-03-02T11:43:32;8.50;;;7.57;;
20890;SDS011;10605;52.968;8.844;2024-03-02T11:45:59;7.85;;;7.22;;
20890;SDS011;10605;52.968;8.844;2024-03-02T11:48:26;7.80;;;7.10;;
20890;SDS011;10605;52.968;8.844;2024-03-02T11:50:52;7.72;;;7.03;;
20890;SDS011;10605;52.968;8.844;2024-03-02T11:53:19;8.43;;;6.85;;
20890;SDS011;10605;52.968;8.844;2024-03-02T11:55:45;7.75;;;7.07;;
20890;SDS011;10605;52.968;8.844;2024-03-02T11:58:11;7.80;;;7.13;;
20890;SDS011;10605;52.968;8.844;2024-03-02T12:00:38;8.52;;;7.82;;
20890;SDS011;10605;52.968;8.844;2024-03-02T12:03:05;7.85;;;7.18;;
20890;SDS011;10605;52.968;8.844;2024-03-02T12:05:32;8.55;;;7.40;;
20890;SDS011;10605;52.968;8.844;2024-03-02T12:08:01;7.50;;;6.90;;
20890;SDS011;10605;52.968;8.844;2024-03-02T12:10:31;8.10;;;7.40;;
20890;SDS011;10605;52.968;8.844;2024-03-02T12:12:58;8.27;;;7.47;;
20890;SDS011;10605;52.968;8.844;2024-03-02T12:15:28;7.93;;;7.22;;
20890;SDS011;10605;52.968;8.844;2024-03-02T12:17:55;7.47;;;6.88;;
20890;SDS011;10605;52.968;8.844;2024-03-02T12:20:22;7.85;;;7.10;;
20890;SDS011;10605;52.968;8.844;2024-03-02T12:22:54;7.63;;;6.88;;
20890;SDS011;10605;52.968;8.844;2024-03-02T12:26:02;7.18;;;6.57;;
20890;SDS011;10605;52.968;8.844;2024-03-02T12:32:19;6.88;;;6.18;;
20890;SDS011;10605;52.968;8.844;2024-03-02T12:35:13;6.50;;;5.90;;
20890;SDS011;10605;52.968;8.844;2024-03-02T12:37:45;6.78;;;6.20;;
20890;SDS011;10605;52.968;8.844;2024-03-02T12:40:16;6.75;;;6.15;;
20890;SDS011;10605;52.968;8.844;2024-03-02T12:42:43;8.07;;;7.28;;
20890;SDS011;10605;52.968;8.844;2024-03-02T12:45:11;6.97;;;6.38;;
20890;SDS011;10605;52.968;8.844;2024-03-02T12:47:37;6.53;;;5.95;;
20890;SDS011;10605;52.968;8.844;2024-03-02T12:50:09;8.90;;;5.57;;
20890;SDS011;10605;52.968;8.844;2024-03-02T12:52:35;5.97;;;5.43;;
20890;SDS011;10605;52.968;8.844;2024-03-02T12:55:06;6.85;;;6.25;;
20890;SDS011;10605;52.968;8.844;2024-03-02T12:58:19;7.85;;;6.50;;
20890;SDS011;10605;52.968;8.844;2024-03-02T13:00:48;7.88;;;7.18;;
20890;SDS011;10605;52.968;8.844;2024-03-02T13:03:14;7.80;;;7.20;;
20890;SDS011;10605;52.968;8.844;2024-03-02T13:05:40;9.98;;;6.90;;
20890;SDS011;10605;52.968;8.844;2024-03-02T13:08:06;9.48;;;7.32;;
20890;SDS011;10605;52.968;8.844;2024-03-02T13:10:33;8.32;;;7.53;;
20890;SDS011;10605;52.968;8.844;2024-03-02T13:12:58;8.90;;;8.00;;
20890;SDS011;10605;52.968;8.844;2024-03-02T13:15:26;8.60;;;7.80;;
20890;SDS011;10605;52.968;8.844;2024-03-02T13:17:52;9.05;;;8.32;;
20890;SDS011;10605;52.968;8.844;2024-03-02T13:20:18;8.10;;;7.30;;
20890;SDS011;10605;52.968;8.844;2024-03-02T13:22:45;10.90;;;7.53;;
20890;SDS011;10605;52.968;8.844;2024-03-02T13:25:10;8.95;;;8.05;;
20890;SDS011;10605;52.968;8.844;2024-03-02T13:27:36;8.10;;;7.40;;
20890;SDS011;10605;52.968;8.844;2024-03-02T13:30:03;9.27;;;7.88;;
20890;SDS011;10605;52.968;8.844;2024-03-02T13:32:31;8.57;;;7.40;;
20890;SDS011;10605;52.968;8.844;2024-03-02T13:34:56;9.60;;;7.95;;
20890;SDS011;10605;52.968;8.844;2024-03-02T13:37:22;9.43;;;8.27;;
20890;SDS011;10605;52.968;8.844;2024-03-02T13:39:48;8.70;;;7.88;;
20890;SDS011;10605;52.968;8.844;2024-03-02T13:42:14;8.63;;;7.70;;
20890;SDS011;10605;52.968;8.844;2024-03-02T13:44:40;8.15;;;7.40;;
20890;SDS011;10605;52.968;8.844;2024-03-02T13:47:09;8.68;;;7.88;;
20890;SDS011;10605;52.968;8.844;2024-03-02T13:49:35;7.95;;;7.25;;
20890;SDS011;10605;52.968;8.844;2024-03-02T13:52:08;9.52;;;7.10;;
20890;SDS011;10605;52.968;8.844;2024-03-02T13:54:38;8.05;;;7.25;;
20890;SDS011;10605;52.968;8.844;2024-03-02T13:57:11;8.73;;;6.75;;
20890;SDS011;10605;52.968;8.844;2024-03-02T13:59:40;7.75;;;6.97;;
20890;SDS011;10605;52.968;8.844;2024-03-02T14:02:07;9.43;;;7.40;;
20890;SDS011;10605;52.968;8.844;2024-03-02T14:04:33;7.07;;;6.50;;
20890;SDS011;10605;52.968;8.844;2024-03-02T14:07:00;7.68;;;6.97;;
20890;SDS011;10605;52.968;8.844;2024-03-02T14:09:26;7.47;;;6.88;;
20890;SDS011;10605;52.968;8.844;2024-03-02T14:11:55;10.40;;;7.38;;
20890;SDS011;10605;52.968;8.844;2024-03-02T14:14:21;7.82;;;7.03;;
20890;SDS011;10605;52.968;8.844;2024-03-02T14:16:47;8.10;;;7.40;;
20890;SDS011;10605;52.968;8.844;2024-03-02T14:19:12;7.82;;;7.22;;
20890;SDS011;10605;52.968;8.844;2024-03-02T14:21:39;7.55;;;6.85;;
20890;SDS011;10605;52.968;8.844;2024-03-02T14:24:05;7.68;;;6.70;;
20890;SDS011;10605;52.968;8.844;2024-03-02T14:26:32;10.20;;;6.80;;
20890;SDS011;10605;52.968;8.844;2024-03-02T14:28:58;6.97;;;6.28;;
20890;SDS011;10605;52.968;8.844;2024-03-02T14:31:26;6.97;;;6.38;;
20890;SDS011;10605;52.968;8.844;2024-03-02T14:33:52;6.80;;;6.20;;
20890;SDS011;10605;52.968;8.844;2024-03-02T14:36:19;7.03;;;6.32;;
20890;SDS011;10605;52.968;8.844;2024-03-02T14:38:45;7.07;;;6.40;;
20890;SDS011;10605;52.968;8.844;2024-03-02T14:41:11;7.40;;;6.80;;
20890;SDS011;10605;52.968;8.844;2024-03-02T14:43:37;7.00;;;6.35;;
20890;SDS011;10605;52.968;8.844;2024-03-02T14:46:03;6.93;;;6.30;;
20890;SDS011;10605;52.968;8.844;2024-03-02T14:48:29;6.75;;;5.95;;